KSGF/SGF METAR and TAF weather

Enter ICAO airport designator
Station Type Date Time Source
KSGF METAR 2019/07/18 10:52 UTC NOAA

KSGF 181052Z 18009KT 10SM CLR 24/22 A2998 RMK AO2 SLP136 T02440222


Station Type Date Time Source
KSGF Decoded METAR 2019/07/18 10:52 UTC NOAA

SPRINGFIELD-BRANSON NATIONAL, MO, United States (KSGF) 37-14N 93-23W 389M
Jul 18, 2019 - 06:52 AM EDT / 2019.07.18 1052 UTC
Wind: from the S (180 degrees) at 10 MPH (9 KT):0
Visibility: 10 mile(s):0
Sky conditions: clear
Temperature: 75.9 F (24.4 C)
Dew Point: 72.0 F (22.2 C)
Relative Humidity: 87%
Pressure (altimeter): 29.98 in. Hg (1015 hPa)
ob: KSGF 181052Z 18009KT 10SM CLR 24/22 A2998 RMK AO2 SLP136 T02440222
cycle: 11

Station Type Date Time Source
KSGF TAF 2019/07/18 12:21 UTC NOAA

TAF KSGF 181120Z 1812/1912 18012KT P6SM SKC
FM181400 21015G24KT P6SM SKC
FM190100 18013KT P6SM SKC

Example: see airport list